sensor_id;sensor_type;location;lat;lon;timestamp;pressure;altitude;pressure_sealevel;temperature;humidity
46464;BME280;32161;48.148;-1.554;2023-09-07T00:00:36;100915.22;;;24.96;96.10
46464;BME280;32161;48.148;-1.554;2023-09-07T00:03:04;100909.16;;;24.94;96.86
46464;BME280;32161;48.148;-1.554;2023-09-07T00:05:32;100903.75;;;24.89;97.47
46464;BME280;32161;48.148;-1.554;2023-09-07T00:07:59;100907.50;;;24.84;97.67
46464;BME280;32161;48.148;-1.554;2023-09-07T00:10:27;100894.59;;;24.80;97.76
46464;BME280;32161;48.148;-1.554;2023-09-07T00:12:55;100887.22;;;24.75;98.09
46464;BME280;32161;48.148;-1.554;2023-09-07T00:15:23;100898.16;;;24.72;97.58
46464;BME280;32161;48.148;-1.554;2023-09-07T00:17:52;100896.50;;;24.71;96.62
46464;BME280;32161;48.148;-1.554;2023-09-07T00:20:20;100898.16;;;24.72;96.11
46464;BME280;32161;48.148;-1.554;2023-09-07T00:22:48;100898.97;;;24.72;95.53
46464;BME280;32161;48.148;-1.554;2023-09-07T00:25:16;100893.41;;;24.72;95.23
46464;BME280;32161;48.148;-1.554;2023-09-07T00:27:44;100895.03;;;24.73;95.02
46464;BME280;32161;48.148;-1.554;2023-09-07T00:30:13;100894.22;;;24.73;94.71
46464;BME280;32161;48.148;-1.554;2023-09-07T00:32:40;100895.38;;;24.72;94.75
46464;BME280;32161;48.148;-1.554;2023-09-07T00:35:09;100890.13;;;24.70;95.03
46464;BME280;32161;48.148;-1.554;2023-09-07T00:37:37;100886.03;;;24.68;94.73
46464;BME280;32161;48.148;-1.554;2023-09-07T00:40:07;100886.03;;;24.68;95.09
46464;BME280;32161;48.148;-1.554;2023-09-07T00:42:36;100879.16;;;24.65;95.81
46464;BME280;32161;48.148;-1.554;2023-09-07T00:45:04;100870.63;;;24.62;97.18
46464;BME280;32161;48.148;-1.554;2023-09-07T00:47:35;100876.03;;;24.58;97.40
46464;BME280;32161;48.148;-1.554;2023-09-07T00:50:03;100871.91;;;24.55;95.55
46464;BME280;32161;48.148;-1.554;2023-09-07T00:52:32;100868.31;;;24.55;94.81
46464;BME280;32161;48.148;-1.554;2023-09-07T00:55:00;100879.78;;;24.53;94.89
46464;BME280;32161;48.148;-1.554;2023-09-07T00:57:29;100864.25;;;24.52;94.92
46464;BME280;32161;48.148;-1.554;2023-09-07T00:59:56;100866.19;;;24.52;95.08
46464;BME280;32161;48.148;-1.554;2023-09-07T01:02:24;100869.28;;;24.50;95.87
46464;BME280;32161;48.148;-1.554;2023-09-07T01:04:53;100862.75;;;24.46;95.99
46464;BME280;32161;48.148;-1.554;2023-09-07T01:07:23;100856.66;;;24.44;96.40
46464;BME280;32161;48.148;-1.554;2023-09-07T01:09:56;100863.06;;;24.45;96.47
46464;BME280;32161;48.148;-1.554;2023-09-07T01:12:23;100866.78;;;24.40;95.83
46464;BME280;32161;48.148;-1.554;2023-09-07T01:14:51;100858.25;;;24.36;95.35
46464;BME280;32161;48.148;-1.554;2023-09-07T01:17:20;100864.47;;;24.33;96.14
46464;BME280;32161;48.148;-1.554;2023-09-07T01:19:49;100858.72;;;24.30;96.67
46464;BME280;32161;48.148;-1.554;2023-09-07T01:22:20;100854.44;;;24.24;97.53
46464;BME280;32161;48.148;-1.554;2023-09-07T01:24:49;100858.50;;;24.18;97.73
46464;BME280;32161;48.148;-1.554;2023-09-07T01:27:17;100861.09;;;24.14;98.12
46464;BME280;32161;48.148;-1.554;2023-09-07T01:29:45;100854.22;;;24.11;97.35
46464;BME280;32161;48.148;-1.554;2023-09-07T01:32:13;100852.88;;;24.09;98.02
46464;BME280;32161;48.148;-1.554;2023-09-07T01:34:40;100849.63;;;24.07;98.09
46464;BME280;32161;48.148;-1.554;2023-09-07T01:37:08;100857.13;;;24.06;97.99
46464;BME280;32161;48.148;-1.554;2023-09-07T01:39:37;100843.56;;;24.05;98.07
46464;BME280;32161;48.148;-1.554;2023-09-07T01:42:05;100838.97;;;24.00;98.73
46464;BME280;32161;48.148;-1.554;2023-09-07T01:44:32;100837.31;;;23.99;99.10
46464;BME280;32161;48.148;-1.554;2023-09-07T01:47:01;100842.38;;;23.97;98.98
46464;BME280;32161;48.148;-1.554;2023-09-07T01:49:28;100841.06;;;23.95;99.09
46464;BME280;32161;48.148;-1.554;2023-09-07T01:51:56;100832.53;;;23.91;99.16
46464;BME280;32161;48.148;-1.554;2023-09-07T01:54:23;100840.38;;;23.89;99.18
46464;BME280;32161;48.148;-1.554;2023-09-07T01:56:52;100833.19;;;23.88;99.12
46464;BME280;32161;48.148;-1.554;2023-09-07T01:59:20;100831.84;;;23.85;99.34
46464;BME280;32161;48.148;-1.554;2023-09-07T02:01:47;100836.91;;;23.83;99.65
46464;BME280;32161;48.148;-1.554;2023-09-07T02:04:15;100834.44;;;23.82;99.20
46464;BME280;32161;48.148;-1.554;2023-09-07T02:06:42;100830.34;;;23.79;99.19
46464;BME280;32161;48.148;-1.554;2023-09-07T02:09:10;100827.41;;;23.76;98.67
46464;BME280;32161;48.148;-1.554;2023-09-07T02:11:37;100828.50;;;23.75;99.00
46464;BME280;32161;48.148;-1.554;2023-09-07T02:14:07;100824.72;;;23.71;99.10
46464;BME280;32161;48.148;-1.554;2023-09-07T02:16:35;100823.09;;;23.70;99.15
46464;BME280;32161;48.148;-1.554;2023-09-07T02:19:04;100833.38;;;23.69;98.71
46464;BME280;32161;48.148;-1.554;2023-09-07T02:21:32;100829.78;;;23.69;98.72
46464;BME280;32161;48.148;-1.554;2023-09-07T02:24:00;100826.19;;;23.68;98.56
46464;BME280;32161;48.148;-1.554;2023-09-07T02:26:28;100831.75;;;23.68;99.01
46464;BME280;32161;48.148;-1.554;2023-09-07T02:28:55;100826.28;;;23.63;99.43
46464;BME280;32161;48.148;-1.554;2023-09-07T02:31:24;100832.78;;;23.58;99.95
46464;BME280;32161;48.148;-1.554;2023-09-07T02:33:51;100822.97;;;23.52;100.00
46464;BME280;32161;48.148;-1.554;2023-09-07T02:36:19;100816.38;;;23.48;100.00
46464;BME280;32161;48.148;-1.554;2023-09-07T02:38:47;100817.66;;;23.42;100.00
46464;BME280;32161;48.148;-1.554;2023-09-07T02:41:14;100816.66;;;23.38;100.00
46464;BME280;32161;48.148;-1.554;2023-09-07T02:43:42;100815.13;;;23.32;100.00
46464;BME280;32161;48.148;-1.554;2023-09-07T02:46:10;100819.38;;;23.29;100.00
46464;BME280;32161;48.148;-1.554;2023-09-07T02:48:38;100808.06;;;23.26;100.00
46464;BME280;32161;48.148;-1.554;2023-09-07T02:51:06;100815.06;;;23.23;100.00
46464;BME280;32161;48.148;-1.554;2023-09-07T02:53:34;100810.13;;;23.20;100.00
46464;BME280;32161;48.148;-1.554;2023-09-07T02:56:01;100810.94;;;23.21;100.00
46464;BME280;32161;48.148;-1.554;2023-09-07T02:58:30;100807.06;;;23.22;99.53
46464;BME280;32161;48.148;-1.554;2023-09-07T03:00:59;100817.00;;;23.23;99.68
46464;BME280;32161;48.148;-1.554;2023-09-07T03:03:27;100817.31;;;23.21;99.48
46464;BME280;32161;48.148;-1.554;2023-09-07T03:05:57;100815.47;;;23.17;99.95
46464;BME280;32161;48.148;-1.554;2023-09-07T03:08:24;100809.75;;;23.13;99.88
46464;BME280;32161;48.148;-1.554;2023-09-07T03:10:52;100812.31;;;23.09;100.00
46464;BME280;32161;48.148;-1.554;2023-09-07T03:13:19;100809.66;;;23.04;100.00
46464;BME280;32161;48.148;-1.554;2023-09-07T03:15:47;100809.16;;;23.02;100.00
46464;BME280;32161;48.148;-1.554;2023-09-07T03:18:14;100801.16;;;23.01;100.00
46464;BME280;32161;48.148;-1.554;2023-09-07T03:20:42;100802.91;;;22.97;100.00
46464;BME280;32161;48.148;-1.554;2023-09-07T03:23:11;100807.13;;;22.94;100.00
46464;BME280;32161;48.148;-1.554;2023-09-07T03:25:38;100810.41;;;22.96;100.00
46464;BME280;32161;48.148;-1.554;2023-09-07T03:28:06;100807.44;;;22.93;100.00
46464;BME280;32161;48.148;-1.554;2023-09-07T03:30:33;100809.66;;;22.90;100.00
46464;BME280;32161;48.148;-1.554;2023-09-07T03:33:01;100808.03;;;22.89;100.00
46464;BME280;32161;48.148;-1.554;2023-09-07T03:35:29;100809.50;;;22.87;100.00
46464;BME280;32161;48.148;-1.554;2023-09-07T03:37:56;100809.59;;;22.82;100.00
46464;BME280;32161;48.148;-1.554;2023-09-07T03:40:25;100812.34;;;22.82;100.00
46464;BME280;32161;48.148;-1.554;2023-09-07T03:42:54;100812.06;;;22.83;100.00
46464;BME280;32161;48.148;-1.554;2023-09-07T03:45:22;100811.75;;;22.85;99.62
46464;BME280;32161;48.148;-1.554;2023-09-07T03:47:50;100809.78;;;22.85;98.17
46464;BME280;32161;48.148;-1.554;2023-09-07T03:50:18;100815.94;;;22.82;98.66
46464;BME280;32161;48.148;-1.554;2023-09-07T03:52:45;100816.28;;;22.81;100.00
46464;BME280;32161;48.148;-1.554;2023-09-07T03:55:13;100818.53;;;22.79;100.00
46464;BME280;32161;48.148;-1.554;2023-09-07T03:57:42;100815.88;;;22.74;100.00
46464;BME280;32161;48.148;-1.554;2023-09-07T04:00:13;100814.22;;;22.73;100.00
46464;BME280;32161;48.148;-1.554;2023-09-07T04:02:42;100808.97;;;22.71;100.00
46464;BME280;32161;48.148;-1.554;2023-09-07T04:05:10;100818.22;;;22.66;100.00
46464;BME280;32161;48.148;-1.554;2023-09-07T04:07:37;100819.97;;;22.62;100.00
46464;BME280;32161;48.148;-1.554;2023-09-07T04:10:06;100810.34;;;22.60;100.00
46464;BME280;32161;48.148;-1.554;2023-09-07T04:12:33;100817.63;;;22.56;100.00
46464;BME280;32161;48.148;-1.554;2023-09-07T04:15:04;100815.78;;;22.51;100.00
46464;BME280;32161;48.148;-1.554;2023-09-07T04:17:32;100812.00;;;22.47;100.00
46464;BME280;32161;48.148;-1.554;2023-09-07T04:22:35;100812.72;;;22.39;100.00
46464;BME280;32161;48.148;-1.554;2023-09-07T04:25:03;100813.84;;;22.38;100.00
46464;BME280;32161;48.148;-1.554;2023-09-07T04:27:31;100810.88;;;22.34;100.00
46464;BME280;32161;48.148;-1.554;2023-09-07T04:29:58;100811.81;;;22.30;100.00
46464;BME280;32161;48.148;-1.554;2023-09-07T04:32:27;100812.53;;;22.22;100.00
46464;BME280;32161;48.148;-1.554;2023-09-07T04:34:55;100804.22;;;22.22;100.00
46464;BME280;32161;48.148;-1.554;2023-09-07T04:37:25;100813.63;;;22.21;100.00
46464;BME280;32161;48.148;-1.554;2023-09-07T04:39:53;100816.19;;;22.17;100.00
46464;BME280;32161;48.148;-1.554;2023-09-07T04:42:21;100810.72;;;22.12;100.00
46464;BME280;32161;48.148;-1.554;2023-09-07T04:44:48;100811.66;;;22.07;100.00
46464;BME280;32161;48.148;-1.554;2023-09-07T04:47:16;100806.72;;;22.04;100.00
46464;BME280;32161;48.148;-1.554;2023-09-07T04:49:49;100797.88;;;22.02;100.00
46464;BME280;32161;48.148;-1.554;2023-09-07T04:52:17;100793.19;;;22.03;100.00
46464;BME280;32161;48.148;-1.554;2023-09-07T04:54:45;100800.03;;;22.05;100.00
46464;BME280;32161;48.148;-1.554;2023-09-07T04:57:15;100801.19;;;22.04;100.00
46464;BME280;32161;48.148;-1.554;2023-09-07T04:59:44;100808.06;;;22.07;100.00
46464;BME280;32161;48.148;-1.554;2023-09-07T05:02:11;100806.50;;;22.01;100.00
46464;BME280;32161;48.148;-1.554;2023-09-07T05:04:39;100814.00;;;22.00;100.00
46464;BME280;32161;48.148;-1.554;2023-09-07T05:07:08;100805.38;;;22.02;100.00
46464;BME280;32161;48.148;-1.554;2023-09-07T05:09:35;100816.75;;;22.00;100.00
46464;BME280;32161;48.148;-1.554;2023-09-07T05:12:03;100822.09;;;21.97;100.00
46464;BME280;32161;48.148;-1.554;2023-09-07T05:14:31;100815.72;;;21.96;100.00
46464;BME280;32161;48.148;-1.554;2023-09-07T05:16:59;100820.13;;;21.97;100.00
46464;BME280;32161;48.148;-1.554;2023-09-07T05:19:27;100818.50;;;21.96;100.00
46464;BME280;32161;48.148;-1.554;2023-09-07T05:21:54;100828.44;;;21.97;100.00
46464;BME280;32161;48.148;-1.554;2023-09-07T05:24:23;100825.66;;;21.97;100.00
46464;BME280;32161;48.148;-1.554;2023-09-07T05:26:51;100826.06;;;21.90;100.00
46464;BME280;32161;48.148;-1.554;2023-09-07T05:29:18;100818.38;;;21.87;100.00
46464;BME280;32161;48.148;-1.554;2023-09-07T05:31:46;100826.16;;;21.85;100.00
46464;BME280;32161;48.148;-1.554;2023-09-07T05:34:14;100824.81;;;21.83;100.00
46464;BME280;32161;48.148;-1.554;2023-09-07T05:36:41;100828.50;;;21.78;100.00
46464;BME280;32161;48.148;-1.554;2023-09-07T05:39:09;100825.50;;;21.75;100.00
46464;BME280;32161;48.148;-1.554;2023-09-07T05:41:38;100833.22;;;21.78;100.00
46464;BME280;32161;48.148;-1.554;2023-09-07T05:44:05;100827.78;;;21.73;100.00
46464;BME280;32161;48.148;-1.554;2023-09-07T05:46:33;100822.84;;;21.69;100.00
46464;BME280;32161;48.148;-1.554;2023-09-07T05:49:00;100825.06;;;21.67;100.00
46464;BME280;32161;48.148;-1.554;2023-09-07T05:51:28;100833.09;;;21.69;100.00
46464;BME280;32161;48.148;-1.554;2023-09-07T05:53:56;100830.53;;;21.73;100.00
46464;BME280;32161;48.148;-1.554;2023-09-07T05:56:23;100838.63;;;21.69;100.00
46464;BME280;32161;48.148;-1.554;2023-09-07T05:58:52;100836.13;;;21.67;100.00
46464;BME280;32161;48.148;-1.554;2023-09-07T06:01:20;100837.00;;;21.68;100.00
46464;BME280;32161;48.148;-1.554;2023-09-07T06:03:47;100840.56;;;21.68;100.00
46464;BME280;32161;48.148;-1.554;2023-09-07T06:06:15;100841.06;;;21.70;100.00
46464;BME280;32161;48.148;-1.554;2023-09-07T06:08:43;100836.91;;;21.73;100.00
46464;BME280;32161;48.148;-1.554;2023-09-07T06:11:10;100829.41;;;21.74;100.00
46464;BME280;32161;48.148;-1.554;2023-09-07T06:13:38;100840.16;;;21.75;100.00
46464;BME280;32161;48.148;-1.554;2023-09-07T06:16:06;100842.31;;;21.78;100.00
46464;BME280;32161;48.148;-1.554;2023-09-07T06:18:34;100838.66;;;21.83;100.00
46464;BME280;32161;48.148;-1.554;2023-09-07T06:21:02;100833.13;;;21.83;100.00
46464;BME280;32161;48.148;-1.554;2023-09-07T06:23:30;100831.69;;;21.85;100.00
46464;BME280;32161;48.148;-1.554;2023-09-07T06:25:58;100831.91;;;21.89;100.00
46464;BME280;32161;48.148;-1.554;2023-09-07T06:28:25;100835.22;;;21.91;100.00
46464;BME280;32161;48.148;-1.554;2023-09-07T06:30:53;100835.38;;;21.94;100.00
46464;BME280;32161;48.148;-1.554;2023-09-07T06:33:22;100839.50;;;21.97;100.00
46464;BME280;32161;48.148;-1.554;2023-09-07T06:35:49;100835.00;;;22.01;100.00
46464;BME280;32161;48.148;-1.554;2023-09-07T06:38:17;100839.94;;;22.04;100.00
46464;BME280;32161;48.148;-1.554;2023-09-07T06:40:48;100840.97;;;22.08;100.00
46464;BME280;32161;48.148;-1.554;2023-09-07T06:43:16;100844.50;;;22.14;100.00
46464;BME280;32161;48.148;-1.554;2023-09-07T06:45:44;100840.50;;;22.20;100.00
46464;BME280;32161;48.148;-1.554;2023-09-07T06:48:11;100844.81;;;22.26;100.00
46464;BME280;32161;48.148;-1.554;2023-09-07T06:50:41;100849.44;;;22.31;100.00
46464;BME280;32161;48.148;-1.554;2023-09-07T06:53:08;100847.38;;;22.36;100.00
46464;BME280;32161;48.148;-1.554;2023-09-07T06:55:36;100856.09;;;22.43;100.00
46464;BME280;32161;48.148;-1.554;2023-09-07T06:58:04;100849.03;;;22.51;100.00
46464;BME280;32161;48.148;-1.554;2023-09-07T07:00:31;100849.13;;;22.60;100.00
46464;BME280;32161;48.148;-1.554;2023-09-07T07:02:59;100853.44;;;22.66;100.00
46464;BME280;32161;48.148;-1.554;2023-09-07T07:05:26;100847.50;;;22.73;100.00
46464;BME280;32161;48.148;-1.554;2023-09-07T07:07:56;100851.78;;;22.79;100.00
46464;BME280;32161;48.148;-1.554;2023-09-07T07:10:24;100849.41;;;22.86;100.00
46464;BME280;32161;48.148;-1.554;2023-09-07T07:12:52;100852.13;;;22.91;100.00
46464;BME280;32161;48.148;-1.554;2023-09-07T07:15:19;100854.44;;;22.98;100.00
46464;BME280;32161;48.148;-1.554;2023-09-07T07:17:47;100856.00;;;23.04;100.00
46464;BME280;32161;48.148;-1.554;2023-09-07T07:20:15;100860.78;;;23.12;100.00
46464;BME280;32161;48.148;-1.554;2023-09-07T07:22:42;100862.34;;;23.18;100.00
46464;BME280;32161;48.148;-1.554;2023-09-07T07:25:11;100868.06;;;23.22;100.00
46464;BME280;32161;48.148;-1.554;2023-09-07T07:27:39;100861.25;;;23.28;100.00
46464;BME280;32161;48.148;-1.554;2023-09-07T07:30:07;100863.63;;;23.34;100.00
46464;BME280;32161;48.148;-1.554;2023-09-07T07:32:35;100860.09;;;23.43;100.00
46464;BME280;32161;48.148;-1.554;2023-09-07T07:35:03;100862.44;;;23.49;100.00
46464;BME280;32161;48.148;-1.554;2023-09-07T07:37:30;100854.78;;;23.55;100.00
46464;BME280;32161;48.148;-1.554;2023-09-07T07:39:58;100862.06;;;23.64;100.00
46464;BME280;32161;48.148;-1.554;2023-09-07T07:42:27;100853.31;;;23.71;100.00
46464;BME280;32161;48.148;-1.554;2023-09-07T07:44:55;100864.09;;;23.73;100.00
46464;BME280;32161;48.148;-1.554;2023-09-07T07:47:22;100861.06;;;23.83;100.00
46464;BME280;32161;48.148;-1.554;2023-09-07T07:49:50;100860.44;;;23.86;100.00
46464;BME280;32161;48.148;-1.554;2023-09-07T07:52:17;100864.72;;;23.92;100.00
46464;BME280;32161;48.148;-1.554;2023-09-07T07:54:45;100862.63;;;23.98;100.00
46464;BME280;32161;48.148;-1.554;2023-09-07T07:57:12;100869.34;;;24.05;100.00
46464;BME280;32161;48.148;-1.554;2023-09-07T07:59:41;100869.72;;;24.12;100.00
46464;BME280;32161;48.148;-1.554;2023-09-07T08:02:09;100870.44;;;24.18;100.00
46464;BME280;32161;48.148;-1.554;2023-09-07T08:04:36;100875.50;;;24.25;100.00
46464;BME280;32161;48.148;-1.554;2023-09-07T08:07:04;100871.00;;;24.38;100.00
46464;BME280;32161;48.148;-1.554;2023-09-07T08:09:33;100875.00;;;24.45;100.00
46464;BME280;32161;48.148;-1.554;2023-09-07T08:12:01;100871.09;;;24.55;98.39
46464;BME280;32161;48.148;-1.554;2023-09-07T08:14:29;100873.09;;;24.63;98.55
46464;BME280;32161;48.148;-1.554;2023-09-07T08:16:58;100869.69;;;24.75;97.64
46464;BME280;32161;48.148;-1.554;2023-09-07T08:19:26;100870.03;;;24.82;96.81
46464;BME280;32161;48.148;-1.554;2023-09-07T08:21:55;100863.50;;;24.87;97.21
46464;BME280;32161;48.148;-1.554;2023-09-07T08:24:23;100857.97;;;24.95;97.53
46464;BME280;32161;48.148;-1.554;2023-09-07T08:26:51;100859.31;;;25.06;96.82
46464;BME280;32161;48.148;-1.554;2023-09-07T08:29:20;100854.75;;;25.11;96.00
46464;BME280;32161;48.148;-1.554;2023-09-07T08:31:51;100859.97;;;25.21;95.71
46464;BME280;32161;48.148;-1.554;2023-09-07T08:34:21;100854.44;;;25.29;95.32
46464;BME280;32161;48.148;-1.554;2023-09-07T08:36:49;100854.91;;;25.40;93.60
46464;BME280;32161;48.148;-1.554;2023-09-07T08:39:17;100843.63;;;25.54;92.11
46464;BME280;32161;48.148;-1.554;2023-09-07T08:41:45;100854.75;;;25.63;91.64
46464;BME280;32161;48.148;-1.554;2023-09-07T08:44:16;100859.66;;;25.66;91.81
46464;BME280;32161;48.148;-1.554;2023-09-07T08:46:45;100854.72;;;25.71;91.70
46464;BME280;32161;48.148;-1.554;2023-09-07T08:49:15;100858.03;;;25.82;89.96
46464;BME280;32161;48.148;-1.554;2023-09-07T08:51:47;100865.03;;;25.97;89.33
46464;BME280;32161;48.148;-1.554;2023-09-07T08:54:15;100859.47;;;25.97;89.08
46464;BME280;32161;48.148;-1.554;2023-09-07T08:56:45;100859.75;;;26.13;88.74
46464;BME280;32161;48.148;-1.554;2023-09-07T08:59:12;100869.22;;;26.20;88.76
46464;BME280;32161;48.148;-1.554;2023-09-07T09:01:40;100868.88;;;26.30;91.26
46464;BME280;32161;48.148;-1.554;2023-09-07T09:04:08;100867.69;;;26.40;90.46
46464;BME280;32161;48.148;-1.554;2023-09-07T09:06:35;100879.81;;;26.53;88.31
46464;BME280;32161;48.148;-1.554;2023-09-07T09:09:04;100871.88;;;26.64;86.16
46464;BME280;32161;48.148;-1.554;2023-09-07T09:11:32;100874.94;;;26.71;88.16
46464;BME280;32161;48.148;-1.554;2023-09-07T09:14:05;100871.78;;;26.81;89.77
46464;BME280;32161;48.148;-1.554;2023-09-07T09:16:32;100873.69;;;26.89;88.00
46464;BME280;32161;48.148;-1.554;2023-09-07T09:19:00;100877.28;;;26.98;88.70
46464;BME280;32161;48.148;-1.554;2023-09-07T09:21:29;100874.41;;;27.07;86.47
46464;BME280;32161;48.148;-1.554;2023-09-07T09:23:57;100867.97;;;27.15;86.14
46464;BME280;32161;48.148;-1.554;2023-09-07T09:26:27;100872.31;;;27.25;87.26
46464;BME280;32161;48.148;-1.554;2023-09-07T09:28:56;100878.13;;;27.41;86.36
46464;BME280;32161;48.148;-1.554;2023-09-07T09:31:24;100880.03;;;27.49;85.02
46464;BME280;32161;48.148;-1.554;2023-09-07T09:33:52;100882.88;;;27.61;86.57
46464;BME280;32161;48.148;-1.554;2023-09-07T09:36:21;100884.91;;;27.73;84.74
46464;BME280;32161;48.148;-1.554;2023-09-07T09:38:50;100879.75;;;27.84;85.02
46464;BME280;32161;48.148;-1.554;2023-09-07T09:41:20;100887.13;;;28.01;84.89
46464;BME280;32161;48.148;-1.554;2023-09-07T09:43:49;100885.53;;;28.12;82.62
46464;BME280;32161;48.148;-1.554;2023-09-07T09:46:18;100877.84;;;28.21;79.97
46464;BME280;32161;48.148;-1.554;2023-09-07T09:48:46;100882.44;;;28.26;79.79
46464;BME280;32161;48.148;-1.554;2023-09-07T09:51:15;100886.97;;;28.30;82.10
46464;BME280;32161;48.148;-1.554;2023-09-07T09:53:43;100884.44;;;28.37;80.76
46464;BME280;32161;48.148;-1.554;2023-09-07T09:56:11;100894.03;;;28.49;80.69
46464;BME280;32161;48.148;-1.554;2023-09-07T09:58:39;100885.63;;;28.61;79.94
46464;BME280;32161;48.148;-1.554;2023-09-07T10:01:09;100881.09;;;28.81;75.25
46464;BME280;32161;48.148;-1.554;2023-09-07T10:03:44;100879.56;;;28.83;75.26
46464;BME280;32161;48.148;-1.554;2023-09-07T10:06:20;100881.75;;;28.90;77.94
46464;BME280;32161;48.148;-1.554;2023-09-07T10:08:58;100871.75;;;29.01;78.33
46464;BME280;32161;48.148;-1.554;2023-09-07T10:11:34;100878.16;;;29.14;77.10
46464;BME280;32161;48.148;-1.554;2023-09-07T10:14:05;100863.09;;;29.18;77.32
46464;BME280;32161;48.148;-1.554;2023-09-07T10:16:45;100867.84;;;29.30;74.87
46464;BME280;32161;48.148;-1.554;2023-09-07T10:19:16;100866.53;;;29.40;74.55
46464;BME280;32161;48.148;-1.554;2023-09-07T10:21:44;100863.59;;;29.49;73.19
46464;BME280;32161;48.148;-1.554;2023-09-07T10:24:23;100862.97;;;29.55;72.83
46464;BME280;32161;48.148;-1.554;2023-09-07T10:26:58;100865.41;;;29.69;71.73
46464;BME280;32161;48.148;-1.554;2023-09-07T10:29:26;100873.03;;;29.84;72.21
46464;BME280;32161;48.148;-1.554;2023-09-07T10:31:56;100855.94;;;29.89;71.07
46464;BME280;32161;48.148;-1.554;2023-09-07T10:34:34;100868.03;;;30.06;69.69
46464;BME280;32161;48.148;-1.554;2023-09-07T10:37:04;100863.75;;;30.12;69.63
46464;BME280;32161;48.148;-1.554;2023-09-07T10:39:33;100857.09;;;30.16;69.43
46464;BME280;32161;48.148;-1.554;2023-09-07T10:42:01;100855.47;;;30.31;67.25
46464;BME280;32161;48.148;-1.554;2023-09-07T10:44:29;100858.56;;;30.42;67.79
46464;BME280;32161;48.148;-1.554;2023-09-07T10:46:58;100847.44;;;30.46;66.99
46464;BME280;32161;48.148;-1.554;2023-09-07T10:49:27;100855.03;;;30.61;65.96
46464;BME280;32161;48.148;-1.554;2023-09-07T10:51:54;100856.28;;;30.63;68.16
46464;BME280;32161;48.148;-1.554;2023-09-07T10:54:23;100856.72;;;30.81;67.08
46464;BME280;32161;48.148;-1.554;2023-09-07T10:56:51;100845.03;;;30.95;65.32
46464;BME280;32161;48.148;-1.554;2023-09-07T10:59:23;100849.06;;;31.13;65.28
46464;BME280;32161;48.148;-1.554;2023-09-07T11:01:54;100839.94;;;31.20;66.53
46464;BME280;32161;48.148;-1.554;2023-09-07T11:04:23;100841.59;;;31.21;66.57
46464;BME280;32161;48.148;-1.554;2023-09-07T11:06:51;100845.09;;;31.34;65.18
46464;BME280;32161;48.148;-1.554;2023-09-07T11:09:20;100841.25;;;31.42;63.49
46464;BME280;32161;48.148;-1.554;2023-09-07T11:11:47;100836.28;;;31.35;64.53
46464;BME280;32161;48.148;-1.554;2023-09-07T11:14:15;100843.56;;;31.36;63.41
46464;BME280;32161;48.148;-1.554;2023-09-07T11:16:43;100838.06;;;31.44;64.67
46464;BME280;32161;48.148;-1.554;2023-09-07T11:19:10;100841.47;;;31.53;64.10
46464;BME280;32161;48.148;-1.554;2023-09-07T11:21:42;100829.25;;;31.65;62.85
46464;BME280;32161;48.148;-1.554;2023-09-07T11:24:09;100826.34;;;31.80;62.73
46464;BME280;32161;48.148;-1.554;2023-09-07T11:26:43;100826.75;;;31.82;63.96
46464;BME280;32161;48.148;-1.554;2023-09-07T11:29:14;100837.75;;;31.88;63.83
46464;BME280;32161;48.148;-1.554;2023-09-07T11:31:42;100827.19;;;32.04;60.71
46464;BME280;32161;48.148;-1.554;2023-09-07T11:34:10;100827.00;;;32.16;59.88
46464;BME280;32161;48.148;-1.554;2023-09-07T11:36:39;100823.00;;;32.17;61.88
46464;BME280;32161;48.148;-1.554;2023-09-07T11:39:08;100826.81;;;32.28;60.10
46464;BME280;32161;48.148;-1.554;2023-09-07T11:41:39;100823.25;;;32.31;59.41
46464;BME280;32161;48.148;-1.554;2023-09-07T11:44:07;100822.50;;;32.34;62.24
46464;BME280;32161;48.148;-1.554;2023-09-07T11:46:34;100816.56;;;32.40;59.09
46464;BME280;32161;48.148;-1.554;2023-09-07T11:49:02;100818.94;;;32.38;61.59
46464;BME280;32161;48.148;-1.554;2023-09-07T11:51:30;100819.09;;;32.45;61.75
46464;BME280;32161;48.148;-1.554;2023-09-07T11:53:58;100815.19;;;32.53;62.68
46464;BME280;32161;48.148;-1.554;2023-09-07T11:56:27;100809.88;;;32.74;60.26
46464;BME280;32161;48.148;-1.554;2023-09-07T11:58:55;100814.63;;;32.70;60.25
46464;BME280;32161;48.148;-1.554;2023-09-07T12:01:22;100804.34;;;32.81;59.65
46464;BME280;32161;48.148;-1.554;2023-09-07T12:03:50;100806.41;;;32.85;57.30
46464;BME280;32161;48.148;-1.554;2023-09-07T12:06:18;100808.38;;;32.80;58.30
46464;BME280;32161;48.148;-1.554;2023-09-07T12:08:58;100797.19;;;32.88;57.78
46464;BME280;32161;48.148;-1.554;2023-09-07T12:11:28;100802.16;;;32.94;57.48
46464;BME280;32161;48.148;-1.554;2023-09-07T12:13:56;100791.22;;;32.93;56.96
46464;BME280;32161;48.148;-1.554;2023-09-07T12:16:27;100798.69;;;33.08;57.90
46464;BME280;32161;48.148;-1.554;2023-09-07T12:18:55;100800.38;;;33.13;58.15
46464;BME280;32161;48.148;-1.554;2023-09-07T12:21:23;100801.66;;;33.19;56.08
46464;BME280;32161;48.148;-1.554;2023-09-07T12:23:50;100802.22;;;33.32;54.45
46464;BME280;32161;48.148;-1.554;2023-09-07T12:26:18;100807.47;;;33.33;54.65
46464;BME280;32161;48.148;-1.554;2023-09-07T12:28:48;100803.16;;;33.43;56.20
46464;BME280;32161;48.148;-1.554;2023-09-07T12:31:16;100796.38;;;33.47;54.40
46464;BME280;32161;48.148;-1.554;2023-09-07T12:33:43;100795.75;;;33.61;52.02
46464;BME280;32161;48.148;-1.554;2023-09-07T12:36:11;100795.63;;;33.50;53.79
46464;BME280;32161;48.148;-1.554;2023-09-07T12:38:38;100795.22;;;33.48;54.68
46464;BME280;32161;48.148;-1.554;2023-09-07T12:41:06;100786.41;;;33.53;53.91
46464;BME280;32161;48.148;-1.554;2023-09-07T12:43:34;100793.78;;;33.65;55.12